Amy-c — MKWC7 — position and weather

sailwx.info

Track history (hours):
 
Tides and Currents Weather Stations Pressure Air Temp Water Temp Dewpoint Dewpoint Depression Visibility Wind Speed Wind Dir Waves Ship Positions

Amy-c

Last reported at 2014-Nov-28 09:33 UTC. Time now 2014-Nov-28 13:25 UTC.
Position S 23°52' W 046°22'.

Length 137 m; draft 4.9 m.

Type: Cargo ship. MMSI: 235010170.

Date/timePositionNaut miles runAvg speedWind from/ knotsBaromVisibWave heightAir tempDewpointWater temp
2014-Nov-28 09:33S 23°52' W 046°22'0 0.0
2014-Nov-28 08:27S 23°52' W 046°22'0 0.0
2014-Nov-28 06:33S 23°52' W 046°22'0 0.0
2014-Nov-28 05:33S 23°52' W 046°22'0 0.0
2014-Nov-28 01:21S 23°52' W 046°22'0 0.0
2014-Nov-27 10:33S 23°52' W 046°22'0 0.0
2014-Nov-27 09:15S 23°52' W 046°22'0 0.0
2014-Nov-27 07:21S 23°52' W 046°22'0 0.0
2014-Nov-27 04:15S 23°52' W 046°22'0 0.0
2014-Nov-26 12:15S 23°52' W 046°22'0 0.0
2014-Nov-26 11:27S 23°52' W 046°22'0 0.0
2014-Nov-26 10:09S 23°52' W 046°22'0 0.0
2014-Nov-25 19:33S 23°52' W 046°22'0 0.0
2014-Nov-25 18:33S 23°52' W 046°22'0 0.0
2014-Nov-25 16:15S 23°52' W 046°22'0 0.0
2014-Nov-25 11:27S 23°52' W 046°22'0 0.0
2014-Nov-25 10:21S 23°52' W 046°22'0 0.0
2014-Nov-25 09:33S 23°52' W 046°22'0 0.0
2014-Nov-25 08:15S 23°52' W 046°22'0 0.0
2014-Nov-25 07:27S 23°52' W 046°22'0 0.0
2014-Nov-25 06:33S 23°52' W 046°22'0 0.0
2014-Nov-25 05:33S 23°52' W 046°22'0 0.0
2014-Nov-25 02:27S 23°52' W 046°22'0 0.0
2014-Nov-24 17:27S 23°52' W 046°23'4 4.3
2014-Nov-24 16:33S 23°56' W 046°20'5 5.0
2014-Nov-24 15:33S 24°01' W 046°20'6 6.2
2014-Nov-24 14:33S 24°06' W 046°18'0 0.1
2014-Nov-24 13:33S 24°06' W 046°18'0 0.0
2014-Nov-24 12:27S 24°06' W 046°18'0 0.0
2014-Nov-24 11:27S 24°06' W 046°18'0 0.0
2014-Nov-24 10:12S 24°06' W 046°18'0 0.0
2014-Nov-24 09:15S 24°06' W 046°18'0 0.0
2014-Nov-24 08:33S 24°06' W 046°18'0 0.0
2014-Nov-24 05:30S 24°06' W 046°18'0 0.0
2014-Nov-24 00:33S 24°06' W 046°18'0 0.0
2014-Nov-23 23:27S 24°06' W 046°18'0 0.0
2014-Nov-23 12:21S 24°06' W 046°18'0 0.0
2014-Nov-23 11:33S 24°06' W 046°18'0 0.0
2014-Nov-23 06:33S 24°06' W 046°18'0 0.1
2014-Nov-23 05:30S 24°06' W 046°18'0 0.0
2014-Nov-23 01:21S 24°06' W 046°18'0 0.0
2014-Nov-23 00:21S 24°06' W 046°18'0 0.0
2014-Nov-22 22:33S 24°06' W 046°18'0 0.0
2014-Nov-22 12:33S 24°06' W 046°18'0 0.0
2014-Nov-22 11:15S 24°06' W 046°18'0 0.0
2014-Nov-22 10:33S 24°06' W 046°18'0 0.1
2014-Nov-22 09:05S 24°07' W 046°18'3 5.2
2014-Nov-22 08:32S 24°08' W 046°21'  
Track history (hours):
 
Tides and Currents Weather Stations Pressure Air Temp Water Temp Dewpoint Dewpoint Depression Visibility Wind Speed Wind Dir Waves Ship Positions

Amy-c

Last reported at 2014-Nov-28 09:33 UTC. Time now 2014-Nov-28 13:25 UTC.
Position S 23°52' W 046°22'.

Length 137 m; draft 4.9 m.

Type: Cargo ship. MMSI: 235010170.

Date/timePositionNaut miles runAvg speedWind from/ knotsBaromVisibWave heightAir tempDewpointWater temp
2014-Nov-28 09:33S 23°52' W 046°22'0 0.0
2014-Nov-28 08:27S 23°52' W 046°22'0 0.0
2014-Nov-28 06:33S 23°52' W 046°22'0 0.0
2014-Nov-28 05:33S 23°52' W 046°22'0 0.0
2014-Nov-28 01:21S 23°52' W 046°22'0 0.0
2014-Nov-27 10:33S 23°52' W 046°22'0 0.0
2014-Nov-27 09:15S 23°52' W 046°22'0 0.0
2014-Nov-27 07:21S 23°52' W 046°22'0 0.0
2014-Nov-27 04:15S 23°52' W 046°22'0 0.0
2014-Nov-26 12:15S 23°52' W 046°22'0 0.0
2014-Nov-26 11:27S 23°52' W 046°22'0 0.0
2014-Nov-26 10:09S 23°52' W 046°22'0 0.0
2014-Nov-25 19:33S 23°52' W 046°22'0 0.0
2014-Nov-25 18:33S 23°52' W 046°22'0 0.0
2014-Nov-25 16:15S 23°52' W 046°22'0 0.0
2014-Nov-25 11:27S 23°52' W 046°22'0 0.0
2014-Nov-25 10:21S 23°52' W 046°22'0 0.0
2014-Nov-25 09:33S 23°52' W 046°22'0 0.0
2014-Nov-25 08:15S 23°52' W 046°22'0 0.0
2014-Nov-25 07:27S 23°52' W 046°22'0 0.0
2014-Nov-25 06:33S 23°52' W 046°22'0 0.0
2014-Nov-25 05:33S 23°52' W 046°22'0 0.0
2014-Nov-25 02:27S 23°52' W 046°22'0 0.0
2014-Nov-24 17:27S 23°52' W 046°23'4 4.3
2014-Nov-24 16:33S 23°56' W 046°20'5 5.0
2014-Nov-24 15:33S 24°01' W 046°20'6 6.2
2014-Nov-24 14:33S 24°06' W 046°18'0 0.1
2014-Nov-24 13:33S 24°06' W 046°18'0 0.0
2014-Nov-24 12:27S 24°06' W 046°18'0 0.0
2014-Nov-24 11:27S 24°06' W 046°18'0 0.0
2014-Nov-24 10:12S 24°06' W 046°18'0 0.0
2014-Nov-24 09:15S 24°06' W 046°18'0 0.0
2014-Nov-24 08:33S 24°06' W 046°18'0 0.0
2014-Nov-24 05:30S 24°06' W 046°18'0 0.0
2014-Nov-24 00:33S 24°06' W 046°18'0 0.0
2014-Nov-23 23:27S 24°06' W 046°18'0 0.0
2014-Nov-23 12:21S 24°06' W 046°18'0 0.0
2014-Nov-23 11:33S 24°06' W 046°18'0 0.0
2014-Nov-23 06:33S 24°06' W 046°18'0 0.1
2014-Nov-23 05:30S 24°06' W 046°18'0 0.0
2014-Nov-23 01:21S 24°06' W 046°18'0 0.0
2014-Nov-23 00:21S 24°06' W 046°18'0 0.0
2014-Nov-22 22:33S 24°06' W 046°18'0 0.0
2014-Nov-22 12:33S 24°06' W 046°18'0 0.0
2014-Nov-22 11:15S 24°06' W 046°18'0 0.0
2014-Nov-22 10:33S 24°06' W 046°18'0 0.1
2014-Nov-22 09:05S 24°07' W 046°18'3 5.2
2014-Nov-22 08:32S 24°08' W 046°21'  

Dump ship's entire track history